createdAt,value
2023-03-01T00:01:27.322Z,102600.91
2023-03-01T00:03:56.198Z,102601.81
2023-03-01T00:06:24.971Z,102607.22
2023-03-01T00:08:53.327Z,102597.41
2023-03-01T00:11:23.324Z,102600.97
2023-03-01T00:13:56.303Z,102586.59
2023-03-01T00:16:26.261Z,102592.97
2023-03-01T00:18:54.289Z,102590.22
2023-03-01T00:21:22.448Z,102590.28
2023-03-01T00:23:51.311Z,102595.69
2023-03-01T00:26:20.256Z,102600.19
2023-03-01T00:29:00.197Z,102592.13
2023-03-01T00:31:31.959Z,102588.56
2023-03-01T00:34:02.468Z,102593.19
2023-03-01T00:36:32.782Z,102589.50
2023-03-01T00:39:01.608Z,102589.56
2023-03-01T00:41:29.562Z,102589.56
2023-03-01T00:43:57.522Z,102586.81
2023-03-01T00:46:27.109Z,102583.19
2023-03-01T00:48:56.390Z,102566.13
2023-03-01T00:51:27.197Z,102570.59
2023-03-01T00:53:55.933Z,102567.00
2023-03-01T00:56:23.807Z,102566.13
2023-03-01T00:58:51.781Z,102566.13
2023-03-01T01:01:22.121Z,102574.19
2023-03-01T01:03:52.524Z,102570.56
2023-03-01T01:06:23.752Z,102565.13
2023-03-01T01:08:52.525Z,102570.53
2023-03-01T01:11:21.585Z,102570.53
2023-03-01T01:13:50.477Z,102566.91
2023-03-01T01:16:20.629Z,102571.34
2023-03-01T01:18:48.504Z,102564.13
2023-03-01T01:21:23.771Z,102556.94
2023-03-01T01:23:54.565Z,102545.25
2023-03-01T01:26:25.670Z,102548.84
2023-03-01T01:28:54.568Z,102544.31
2023-03-01T01:31:24.615Z,102531.78
2023-03-01T01:33:52.606Z,102525.56
2023-03-01T01:36:20.724Z,102527.38
2023-03-01T01:38:48.925Z,102525.59
2023-03-01T01:41:19.704Z,102522.94
2023-03-01T01:43:49.395Z,102526.53
2023-03-01T01:46:30.697Z,102523.84
2023-03-01T01:49:02.165Z,102518.53
2023-03-01T01:51:39.536Z,102507.78
2023-03-01T01:54:12.351Z,102496.09
2023-03-01T01:56:45.605Z,102489.84
2023-03-01T01:59:14.224Z,102489.88
2023-03-01T02:01:42.163Z,102487.19
2023-03-01T02:04:10.086Z,102482.69
2023-03-01T02:06:41.911Z,102487.22
2023-03-01T02:09:15.587Z,102496.25
2023-03-01T02:11:46.273Z,102493.56
2023-03-01T02:14:16.739Z,102493.66
2023-03-01T02:16:44.992Z,102492.75
2023-03-01T02:19:21.939Z,102492.75
2023-03-01T02:22:00.985Z,102498.16
2023-03-01T02:24:38.076Z,102499.97
2023-03-01T02:27:07.570Z,102489.34
2023-03-01T02:29:37.346Z,102499.19
2023-03-01T02:32:06.080Z,102509.09
2023-03-01T02:34:34.806Z,102507.34
2023-03-01T02:37:05.516Z,102501.16
2023-03-01T02:39:42.813Z,102493.97
2023-03-01T02:42:14.896Z,102500.28
2023-03-01T02:44:44.219Z,102498.50
2023-03-01T02:47:11.999Z,102486.88
2023-03-01T02:49:39.814Z,102486.88
2023-03-01T02:52:25.562Z,102485.03
2023-03-01T02:55:00.481Z,102496.78
2023-03-01T02:57:30.985Z,102485.13
2023-03-01T03:00:07.859Z,102479.72
2023-03-01T03:02:39.924Z,102477.97
2023-03-01T03:05:23.241Z,102484.28
2023-03-01T03:07:56.687Z,102477.13
2023-03-01T03:10:26.904Z,102486.09
2023-03-01T03:12:57.972Z,102481.63
2023-03-01T03:15:30.142Z,102480.75
2023-03-01T03:18:00.093Z,102478.19
2023-03-01T03:20:30.173Z,102478.19
2023-03-01T03:23:00.098Z,102475.50
2023-03-01T03:25:29.339Z,102480.88
2023-03-01T03:27:58.977Z,102465.69
2023-03-01T03:30:31.866Z,102467.50
2023-03-01T03:33:01.106Z,102461.28
2023-03-01T03:35:32.030Z,102469.34
2023-03-01T03:38:04.148Z,102457.69
2023-03-01T03:40:33.730Z,102460.47
2023-03-01T03:43:01.522Z,102451.50
2023-03-01T03:45:30.811Z,102465.88
2023-03-01T03:47:58.601Z,102459.59
2023-03-01T03:50:26.408Z,102455.09
2023-03-01T03:52:54.197Z,102451.56
2023-03-01T03:55:22.180Z,102456.94
2023-03-01T03:57:52.411Z,102450.66
2023-03-01T04:00:22.500Z,102452.50
2023-03-01T04:02:57.448Z,102453.41
2023-03-01T04:05:25.988Z,102444.50
2023-03-01T04:08:01.968Z,102448.13
2023-03-01T04:10:31.827Z,102447.25
2023-03-01T04:12:59.813Z,102440.06
2023-03-01T04:15:29.066Z,102435.56
2023-03-01T04:17:59.960Z,102432.06
2023-03-01T04:20:30.790Z,102431.19
2023-03-01T04:23:11.372Z,102429.41
2023-03-01T04:25:40.161Z,102427.69
2023-03-01T04:28:08.518Z,102432.19
2023-03-01T04:30:37.221Z,102426.88
2023-03-01T04:33:08.776Z,102425.06
2023-03-01T04:35:37.926Z,102426.91
2023-03-01T04:38:06.208Z,102426.03
2023-03-01T04:40:34.895Z,102426.06
2023-03-01T04:43:03.217Z,102435.06
2023-03-01T04:45:31.367Z,102425.25
2023-03-01T04:47:59.524Z,102430.66
2023-03-01T04:50:28.751Z,102423.47
2023-03-01T04:52:59.352Z,102415.44
2023-03-01T04:55:28.153Z,102424.44
2023-03-01T04:57:56.588Z,102415.47
2023-03-01T05:00:26.722Z,102412.78
2023-03-01T05:02:56.988Z,102416.47
2023-03-01T05:05:27.754Z,102420.97
2023-03-01T05:07:59.467Z,102416.56
2023-03-01T05:10:29.902Z,102422.91
2023-03-01T05:12:58.292Z,102406.78
2023-03-01T05:15:26.859Z,102405.88
2023-03-01T05:17:56.092Z,102411.28
2023-03-01T05:20:24.888Z,102406.94
2023-03-01T05:22:54.214Z,102421.34
2023-03-01T05:25:23.701Z,102419.66
2023-03-01T05:27:51.442Z,102416.13
2023-03-01T05:30:20.330Z,102410.88
2023-03-01T05:32:56.618Z,102415.41
2023-03-01T05:35:24.969Z,102409.22
2023-03-01T05:37:53.611Z,102406.53
2023-03-01T05:40:25.281Z,102407.44
2023-03-01T05:42:55.488Z,102412.91
2023-03-01T05:45:24.839Z,102404.84
2023-03-01T05:47:53.216Z,102399.56
2023-03-01T05:50:23.004Z,102401.41
2023-03-01T05:52:53.186Z,102408.56
2023-03-01T05:55:23.668Z,102393.34
2023-03-01T05:57:52.102Z,102403.22
2023-03-01T06:00:23.098Z,102397.84
2023-03-01T06:02:52.701Z,102401.47
2023-03-01T06:05:20.685Z,102400.59
2023-03-01T06:07:48.719Z,102400.56
2023-03-01T06:10:16.803Z,102406.94
2023-03-01T06:12:46.392Z,102404.19
2023-03-01T06:15:16.854Z,102406.06
2023-03-01T06:17:46.879Z,102403.38
2023-03-01T06:20:17.142Z,102400.66
2023-03-01T06:22:45.794Z,102401.56
2023-03-01T06:25:15.441Z,102403.34
2023-03-01T06:27:44.012Z,102406.06
2023-03-01T06:30:15.914Z,102404.16
2023-03-01T06:32:43.860Z,102392.56
2023-03-01T06:35:12.752Z,102398.78
2023-03-01T06:37:41.965Z,102396.06
2023-03-01T06:40:12.709Z,102394.25
2023-03-01T06:42:41.959Z,102398.66
2023-03-01T06:45:11.657Z,102398.72
2023-03-01T06:47:40.850Z,102397.72
2023-03-01T06:50:09.772Z,102400.38
2023-03-01T06:52:38.103Z,102396.78
2023-03-01T06:55:06.740Z,102394.06
2023-03-01T06:57:34.768Z,102405.63
2023-03-01T07:00:02.516Z,102394.72
2023-03-01T07:02:30.381Z,102398.13
2023-03-01T07:04:59.559Z,102392.47
2023-03-01T07:07:27.378Z,102386.81
2023-03-01T07:09:55.341Z,102384.72
2023-03-01T07:12:23.186Z,102396.06
2023-03-01T07:14:50.958Z,102389.41
2023-03-01T07:17:19.793Z,102385.44
2023-03-01T07:19:47.527Z,102387.69
2023-03-01T07:22:16.722Z,102386.28
2023-03-01T07:24:45.017Z,102381.31
2023-03-01T07:27:14.190Z,102377.25
2023-03-01T07:29:41.958Z,102372.25
2023-03-01T07:32:13.644Z,102369.88
2023-03-01T07:34:41.508Z,102373.00
2023-03-01T07:37:09.215Z,102369.84
2023-03-01T07:39:38.460Z,102370.25
2023-03-01T07:42:06.180Z,102379.78
2023-03-01T07:44:35.381Z,102370.31
2023-03-01T07:47:03.172Z,102385.28
2023-03-01T07:49:30.967Z,102378.56
2023-03-01T07:51:58.662Z,102377.38
2023-03-01T07:54:27.238Z,102378.81
2023-03-01T07:56:56.449Z,102388.31
2023-03-01T07:59:24.848Z,102388.81
2023-03-01T08:01:52.618Z,102385.66
2023-03-01T08:04:20.521Z,102389.72
2023-03-01T08:06:48.214Z,102382.97
2023-03-01T08:09:16.075Z,102394.38
2023-03-01T08:11:43.829Z,102378.81
2023-03-01T08:14:13.044Z,102375.97
2023-03-01T08:16:41.128Z,102375.06
2023-03-01T08:19:10.086Z,102372.41
2023-03-01T08:21:38.677Z,102377.88
2023-03-01T08:24:08.040Z,102377.00
2023-03-01T08:26:36.121Z,102373.59
2023-03-01T08:29:05.241Z,102376.41
2023-03-01T08:31:36.563Z,102373.13
2023-03-01T08:34:07.334Z,102371.44
2023-03-01T08:36:38.711Z,102375.50
2023-03-01T08:39:07.708Z,102378.25
2023-03-01T08:41:35.716Z,102378.34
2023-03-01T08:44:03.750Z,102366.81
2023-03-01T08:46:34.767Z,102373.50
2023-03-01T08:49:05.305Z,102381.75
2023-03-01T08:51:37.437Z,102372.25
2023-03-01T08:54:05.526Z,102369.59
2023-03-01T08:56:33.875Z,102365.81
2023-03-01T08:59:02.109Z,102377.78
2023-03-01T09:01:29.914Z,102372.38
2023-03-01T09:03:59.212Z,102377.75
2023-03-01T09:06:26.985Z,102369.59
2023-03-01T09:08:55.830Z,102359.44
2023-03-01T09:11:24.353Z,102362.00
2023-03-01T09:13:52.682Z,102366.31
2023-03-01T09:16:23.055Z,102368.84
2023-03-01T09:18:52.792Z,102366.75
2023-03-01T09:21:37.585Z,102365.69
2023-03-01T09:24:07.884Z,102361.91
2023-03-01T09:26:35.659Z,102353.50
2023-03-01T09:29:03.453Z,102357.06
2023-03-01T09:31:31.156Z,102354.94
2023-03-01T09:33:58.930Z,102352.91
2023-03-01T09:36:28.244Z,102343.59
2023-03-01T09:38:56.087Z,102328.09
2023-03-01T09:41:39.173Z,102328.84
2023-03-01T09:44:15.491Z,102325.03
2023-03-01T09:46:47.134Z,102325.69
2023-03-01T09:49:20.614Z,102329.22
2023-03-01T09:52:02.861Z,102319.19
2023-03-01T09:54:30.806Z,102313.53
2023-03-01T09:57:15.212Z,102321.44
2023-03-01T09:59:58.093Z,102315.66
2023-03-01T10:02:32.806Z,102315.50
2023-03-01T10:05:15.271Z,102315.22
2023-03-01T10:07:52.870Z,102309.88
2023-03-01T10:10:29.854Z,102312.13
2023-03-01T10:12:58.895Z,102310.13
2023-03-01T10:15:37.179Z,102311.59
2023-03-01T10:18:11.984Z,102312.28
2023-03-01T10:20:47.964Z,102294.06
2023-03-01T10:23:17.092Z,102297.44
2023-03-01T10:25:58.222Z,102295.34
2023-03-01T10:28:30.916Z,102287.44
2023-03-01T10:31:01.112Z,102282.06
2023-03-01T10:33:33.542Z,102287.22
2023-03-01T10:36:01.406Z,102284.44
2023-03-01T10:38:33.270Z,102288.81
2023-03-01T10:41:06.381Z,102281.53
2023-03-01T10:43:46.440Z,102275.06
2023-03-01T10:46:28.784Z,102285.88
2023-03-01T10:49:15.739Z,102281.41
2023-03-01T10:51:45.819Z,102272.38
2023-03-01T10:54:21.443Z,102264.97
2023-03-01T10:56:51.692Z,102263.00
2023-03-01T10:59:28.508Z,102260.16
2023-03-01T11:02:26.188Z,102258.19
2023-03-01T11:05:00.290Z,102255.41
2023-03-01T11:07:28.648Z,102253.56
2023-03-01T11:09:57.900Z,102251.47
2023-03-01T11:12:26.460Z,102239.59
2023-03-01T11:14:57.108Z,102236.88
2023-03-01T11:17:29.984Z,102236.94
2023-03-01T11:20:18.052Z,102229.75
2023-03-01T11:22:50.011Z,102225.91
2023-03-01T11:25:21.462Z,102224.66
2023-03-01T11:27:49.430Z,102210.06
2023-03-01T11:30:22.197Z,102197.44
2023-03-01T11:32:57.281Z,102200.00
2023-03-01T11:35:28.642Z,102198.06
2023-03-01T11:38:18.737Z,102192.25
2023-03-01T11:40:54.315Z,102194.91
2023-03-01T11:43:29.443Z,102202.13
2023-03-01T11:46:23.748Z,102202.66
2023-03-01T11:48:59.881Z,102202.53
2023-03-01T11:51:46.648Z,102197.75
2023-03-01T11:54:30.180Z,102205.78
2023-03-01T11:57:03.287Z,102200.09
2023-03-01T11:59:50.114Z,102196.19
2023-03-01T12:02:37.775Z,102200.38
2023-03-01T12:05:26.618Z,102188.31
2023-03-01T12:08:01.300Z,102193.50
2023-03-01T12:10:30.641Z,102184.16
2023-03-01T12:13:20.059Z,102174.03
2023-03-01T12:16:11.960Z,102171.88
2023-03-01T12:18:54.933Z,102177.88
2023-03-01T12:21:33.097Z,102171.50
2023-03-01T12:24:26.526Z,102175.75
2023-03-01T12:27:05.862Z,102169.47
2023-03-01T12:29:40.706Z,102167.00
2023-03-01T12:32:23.972Z,102162.44
2023-03-01T12:35:24.213Z,102158.91
2023-03-01T12:37:58.677Z,102161.56
2023-03-01T12:40:48.854Z,102152.47
2023-03-01T12:43:30.352Z,102147.69
2023-03-01T12:46:16.867Z,102138.50
2023-03-01T12:48:52.898Z,102128.50
2023-03-01T12:51:25.630Z,102121.16
2023-03-01T12:53:57.075Z,102127.56
2023-03-01T12:56:27.488Z,102122.69
2023-03-01T12:59:04.608Z,102126.06
2023-03-01T13:01:44.838Z,102122.31
2023-03-01T13:04:39.419Z,102108.56
2023-03-01T13:07:18.730Z,102110.06
2023-03-01T13:09:56.396Z,102110.75
2023-03-01T13:13:04.069Z,102108.41
2023-03-01T13:15:36.594Z,102105.19
2023-03-01T13:18:27.383Z,102105.94
2023-03-01T13:20:58.351Z,102107.78
2023-03-01T13:23:28.786Z,102097.38
2023-03-01T13:26:15.087Z,102100.69
2023-03-01T13:29:01.847Z,102091.88
2023-03-01T13:32:04.965Z,102094.09
2023-03-01T13:34:45.801Z,102089.28
2023-03-01T13:37:22.972Z,102086.13
2023-03-01T13:39:51.135Z,102089.03
2023-03-01T13:43:04.195Z,102086.50
2023-03-01T13:45:41.232Z,102087.38
2023-03-01T13:48:17.220Z,102086.31
2023-03-01T13:50:51.239Z,102085.31
2023-03-01T13:53:21.821Z,102081.81
2023-03-01T13:55:52.862Z,102081.72
2023-03-01T13:58:26.325Z,102076.19
2023-03-01T14:00:59.508Z,102074.53
2023-03-01T14:03:28.076Z,102061.59
2023-03-01T14:06:14.867Z,102059.53
2023-03-01T14:08:45.083Z,102062.25
2023-03-01T14:11:43.856Z,102068.19
2023-03-01T14:14:42.433Z,102064.31
2023-03-01T14:17:28.338Z,102056.47
2023-03-01T14:19:58.258Z,102060.00
2023-03-01T14:22:29.413Z,102057.34
2023-03-01T14:25:00.273Z,102048.56
2023-03-01T14:27:30.006Z,102046.06
2023-03-01T14:30:03.459Z,102047.28
2023-03-01T14:32:33.501Z,102036.63
2023-03-01T14:35:02.634Z,102032.41
2023-03-01T14:37:33.840Z,102024.16
2023-03-01T14:40:03.561Z,102029.44
2023-03-01T14:42:35.945Z,102014.31
2023-03-01T14:45:05.820Z,102016.41
2023-03-01T14:47:35.665Z,102005.59
2023-03-01T14:50:06.826Z,102009.19
2023-03-01T14:52:39.573Z,102004.78
2023-03-01T14:55:17.260Z,102002.31
2023-03-01T14:57:46.103Z,102003.22
2023-03-01T15:00:20.812Z,101988.41
2023-03-01T15:02:50.779Z,101992.34
2023-03-01T15:05:29.888Z,101990.41
2023-03-01T15:08:01.272Z,101985.34
2023-03-01T15:10:31.046Z,101990.25
2023-03-01T15:13:11.821Z,101991.44
2023-03-01T15:15:42.713Z,101995.81
2023-03-01T15:18:18.799Z,101987.84
2023-03-01T15:20:47.220Z,101985.13
2023-03-01T15:23:25.499Z,101981.34
2023-03-01T15:25:58.214Z,101977.06
2023-03-01T15:28:28.572Z,101977.78
2023-03-01T15:31:03.000Z,101974.97
2023-03-01T15:33:34.102Z,101979.03
2023-03-01T15:36:03.717Z,101968.81
2023-03-01T15:38:39.203Z,101974.00
2023-03-01T15:41:23.794Z,101966.66
2023-03-01T15:43:51.727Z,101963.94
2023-03-01T15:46:24.553Z,101973.38
2023-03-01T15:48:55.490Z,101973.78
2023-03-01T15:51:31.110Z,101964.75
2023-03-01T15:54:02.686Z,101964.41
2023-03-01T15:56:30.875Z,101962.66
2023-03-01T15:59:03.853Z,101958.84
2023-03-01T16:01:35.111Z,101961.69
2023-03-01T16:04:03.036Z,101956.19
2023-03-01T16:06:31.277Z,101946.53
2023-03-01T16:09:00.860Z,101957.16
2023-03-01T16:11:29.009Z,101956.66
2023-03-01T16:13:56.932Z,101957.53
2023-03-01T16:16:25.406Z,101959.22
2023-03-01T16:18:55.511Z,101956.72
2023-03-01T16:21:25.816Z,101963.22
2023-03-01T16:23:54.172Z,101960.50
2023-03-01T16:26:23.379Z,101953.38
2023-03-01T16:28:51.191Z,101961.75
2023-03-01T16:31:21.320Z,101959.84
2023-03-01T16:33:50.908Z,101972.63
2023-03-01T16:36:20.664Z,101965.41
2023-03-01T16:38:49.425Z,101962.72
2023-03-01T16:41:20.868Z,101958.25
2023-03-01T16:43:50.295Z,101960.00
2023-03-01T16:46:19.904Z,101960.88
2023-03-01T16:48:49.009Z,101964.56
2023-03-01T16:51:17.218Z,101956.56
2023-03-01T16:53:47.393Z,101960.25
2023-03-01T16:56:16.438Z,101967.75
2023-03-01T16:58:44.881Z,101961.50
2023-03-01T17:01:18.259Z,101961.44
2023-03-01T17:03:48.246Z,101966.06
2023-03-01T17:06:19.447Z,101978.84
2023-03-01T17:08:47.269Z,101980.03
2023-03-01T17:11:17.041Z,101980.41
2023-03-01T17:13:45.388Z,101978.72
2023-03-01T17:16:18.011Z,101969.63
2023-03-01T17:18:45.886Z,101989.72
2023-03-01T17:21:14.444Z,101976.00
2023-03-01T17:23:45.550Z,101981.50
2023-03-01T17:26:14.171Z,101987.00
2023-03-01T17:28:43.799Z,101989.81
2023-03-01T17:31:12.000Z,101984.38
2023-03-01T17:33:41.113Z,101987.16
2023-03-01T17:36:09.101Z,101985.41
2023-03-01T17:38:37.428Z,101986.66
2023-03-01T17:41:06.194Z,101990.25
2023-03-01T17:43:35.122Z,101987.75
2023-03-01T17:46:03.369Z,101987.84
2023-03-01T17:48:31.617Z,101992.47
2023-03-01T17:51:00.990Z,101999.66
2023-03-01T17:53:28.751Z,101995.19
2023-03-01T17:56:01.742Z,101998.84
2023-03-01T17:58:29.523Z,101990.44
2023-03-01T18:00:57.305Z,101994.00
2023-03-01T18:03:25.196Z,101996.56
2023-03-01T18:05:53.037Z,101992.16
2023-03-01T18:08:22.200Z,101994.00
2023-03-01T18:10:50.225Z,101996.00
2023-03-01T18:13:18.031Z,101993.41
2023-03-01T18:15:45.761Z,101990.69
2023-03-01T18:18:13.537Z,101987.25
2023-03-01T18:20:41.317Z,101982.72
2023-03-01T18:23:09.221Z,101993.56
2023-03-01T18:25:41.508Z,101982.78
2023-03-01T18:28:09.367Z,101982.06
2023-03-01T18:30:37.306Z,101986.63
2023-03-01T18:33:05.366Z,101984.13
2023-03-01T18:35:37.014Z,101977.94
2023-03-01T18:38:05.863Z,101972.63
2023-03-01T18:40:33.703Z,101971.75
2023-03-01T18:43:03.056Z,101970.84
2023-03-01T18:45:32.558Z,101969.44
2023-03-01T18:48:00.410Z,101961.38
2023-03-01T18:50:28.246Z,101965.03
2023-03-01T18:52:56.298Z,101965.16
2023-03-01T18:55:24.082Z,101963.50
2023-03-01T18:57:51.941Z,101963.50
2023-03-01T19:00:22.875Z,101950.72
2023-03-01T19:02:50.681Z,101948.19
2023-03-01T19:05:18.793Z,101948.13
2023-03-01T19:07:46.604Z,101955.31
2023-03-01T19:10:14.346Z,101948.91
2023-03-01T19:12:42.140Z,101950.66
2023-03-01T19:15:10.471Z,101951.59
2023-03-01T19:17:39.609Z,101947.06
2023-03-01T19:20:09.017Z,101950.88
2023-03-01T19:22:36.838Z,101953.53
2023-03-01T19:25:04.984Z,101950.88
2023-03-01T19:27:32.815Z,101950.00
2023-03-01T19:30:00.572Z,101952.78
2023-03-01T19:32:28.525Z,101955.44
2023-03-01T19:34:57.745Z,101951.84
2023-03-01T19:37:25.590Z,101957.31
2023-03-01T19:39:53.391Z,101959.09
2023-03-01T19:42:24.816Z,101957.50
2023-03-01T19:44:52.590Z,101953.91
2023-03-01T19:47:20.389Z,101950.31
2023-03-01T19:49:48.250Z,101946.78
2023-03-01T19:52:17.507Z,101946.63
2023-03-01T19:54:46.463Z,101945.81
2023-03-01T19:57:14.300Z,101950.38
2023-03-01T19:59:42.248Z,101952.19
2023-03-01T20:02:12.160Z,101951.31
2023-03-01T20:04:39.984Z,101946.91
2023-03-01T20:07:07.846Z,101944.25
2023-03-01T20:09:37.223Z,101946.19
2023-03-01T20:12:05.231Z,101938.16
2023-03-01T20:14:33.110Z,101943.59
2023-03-01T20:17:00.921Z,101945.56
2023-03-01T20:19:29.655Z,101952.00
2023-03-01T20:21:57.527Z,101947.53
2023-03-01T20:24:25.381Z,101944.88
2023-03-01T20:26:54.508Z,101947.59
2023-03-01T20:29:22.541Z,101949.50
2023-03-01T20:31:50.545Z,101951.25
2023-03-01T20:34:18.564Z,101957.63
2023-03-01T20:36:46.356Z,101950.38
2023-03-01T20:39:14.227Z,101952.22
2023-03-01T20:41:42.158Z,101946.00
2023-03-01T20:44:11.602Z,101950.31
2023-03-01T20:46:39.863Z,101949.44
2023-03-01T20:49:08.208Z,101951.25
2023-03-01T20:51:36.027Z,101952.16
2023-03-01T20:54:04.173Z,101952.97
2023-03-01T20:56:32.475Z,101950.25
2023-03-01T20:59:04.515Z,101948.41
2023-03-01T21:01:33.765Z,101951.13
2023-03-01T21:04:01.627Z,101946.72
2023-03-01T21:06:29.628Z,101955.69
2023-03-01T21:09:10.876Z,101945.72
2023-03-01T21:11:39.254Z,101941.28
2023-03-01T21:14:07.039Z,101949.59
2023-03-01T21:16:36.640Z,101952.38
2023-03-01T21:19:05.459Z,101950.72
2023-03-01T21:21:33.276Z,101957.03
2023-03-01T21:24:01.055Z,101953.50
2023-03-01T21:26:28.865Z,101954.53
2023-03-01T21:28:58.509Z,101968.97
2023-03-01T21:31:28.451Z,101964.56
2023-03-01T21:33:59.926Z,101961.84
2023-03-01T21:36:30.401Z,101961.84
2023-03-01T21:39:01.232Z,101955.53
2023-03-01T21:41:31.399Z,101949.25
2023-03-01T21:44:01.130Z,101942.06
2023-03-01T21:46:31.870Z,101940.34
2023-03-01T21:49:02.499Z,101936.03
2023-03-01T21:51:30.547Z,101934.34
2023-03-01T21:54:00.983Z,101944.44
2023-03-01T21:56:31.755Z,101939.03
2023-03-01T21:58:59.946Z,101939.16
2023-03-01T22:01:29.461Z,101935.63
2023-03-01T22:03:58.538Z,101934.84
2023-03-01T22:06:30.891Z,101934.88
2023-03-01T22:09:01.033Z,101923.28
2023-03-01T22:11:29.088Z,101926.88
2023-03-01T22:13:57.397Z,101935.06
2023-03-01T22:16:27.231Z,101931.47
2023-03-01T22:18:55.286Z,101933.41
2023-03-01T22:21:24.666Z,101937.19
2023-03-01T22:23:54.480Z,101932.66
2023-03-01T22:26:25.422Z,101932.66
2023-03-01T22:28:53.912Z,101939.06
2023-03-01T22:31:22.187Z,101942.00
2023-03-01T22:33:50.061Z,101941.09
2023-03-01T22:36:18.058Z,101948.28
2023-03-01T22:38:46.274Z,101943.81
2023-03-01T22:41:17.197Z,101931.22
2023-03-01T22:43:44.958Z,101935.91
2023-03-01T22:46:14.177Z,101938.59
2023-03-01T22:48:42.205Z,101936.91
2023-03-01T22:51:15.032Z,101936.06
2023-03-01T22:53:42.864Z,101934.53
2023-03-01T22:56:18.049Z,101933.63
2023-03-01T22:58:46.361Z,101938.19
2023-03-01T23:01:16.208Z,101934.59
2023-03-01T23:03:45.365Z,101928.41
2023-03-01T23:06:14.161Z,101932.16
2023-03-01T23:08:42.182Z,101929.50
2023-03-01T23:11:16.975Z,101929.44
2023-03-01T23:13:45.052Z,101922.44
2023-03-01T23:16:13.591Z,101932.47
2023-03-01T23:18:41.870Z,101930.88
2023-03-01T23:21:11.011Z,101930.94
2023-03-01T23:23:39.122Z,101928.31
2023-03-01T23:26:07.889Z,101932.03
2023-03-01T23:28:40.682Z,101937.50
2023-03-01T23:31:09.742Z,101943.03
2023-03-01T23:33:38.760Z,101930.63
2023-03-01T23:36:07.907Z,101930.56
2023-03-01T23:38:35.696Z,101929.81
2023-03-01T23:41:03.476Z,101934.38
2023-03-01T23:43:33.061Z,101938.13
2023-03-01T23:46:02.297Z,101939.94
2023-03-01T23:48:30.072Z,101939.19
2023-03-01T23:50:57.916Z,101937.44
2023-03-01T23:53:25.955Z,101942.97
2023-03-01T23:55:55.106Z,101939.31
2023-03-01T23:58:28.269Z,101944.75
